createdAt,value
2022-12-26T00:00:10.087Z,10.3
2022-12-26T00:03:10.635Z,10.3
2022-12-26T00:06:09.601Z,10.4
2022-12-26T00:09:09.630Z,10.3
2022-12-26T00:12:09.629Z,10.3
2022-12-26T00:15:09.715Z,10.3
2022-12-26T00:18:09.592Z,10.3
2022-12-26T00:21:09.614Z,10.3
2022-12-26T00:24:09.579Z,10.2
2022-12-26T00:27:09.610Z,10.3
2022-12-26T00:30:09.743Z,10.4
2022-12-26T00:33:09.680Z,10.4
2022-12-26T00:36:09.553Z,10.3
2022-12-26T00:39:09.651Z,10.3
2022-12-26T00:42:09.625Z,10.3
2022-12-26T00:45:09.562Z,10.2
2022-12-26T00:48:09.575Z,10.2
2022-12-26T00:51:09.628Z,10.1
2022-12-26T00:54:09.625Z,10.1
2022-12-26T00:57:09.690Z,10.1
2022-12-26T01:00:09.662Z,10.1
2022-12-26T01:03:10.459Z,10.1
2022-12-26T01:06:09.605Z,10
2022-12-26T01:09:09.637Z,10
2022-12-26T01:12:09.583Z,9.9
2022-12-26T01:15:09.649Z,9.9
2022-12-26T01:18:09.657Z,9.9
2022-12-26T01:21:09.603Z,9.9
2022-12-26T01:24:09.806Z,9.9
2022-12-26T01:27:09.639Z,9.8
2022-12-26T01:30:09.655Z,9.8
2022-12-26T01:33:09.585Z,9.8
2022-12-26T01:36:09.700Z,9.8
2022-12-26T01:39:09.619Z,9.8
2022-12-26T01:42:09.583Z,9.7
2022-12-26T01:45:09.647Z,9.7
2022-12-26T01:48:09.595Z,9.7
2022-12-26T01:51:09.621Z,9.7
2022-12-26T01:54:51.806Z,9.6
2022-12-26T01:57:09.646Z,9.6
2022-12-26T02:00:09.788Z,9.5
2022-12-26T02:03:10.069Z,9.6
2022-12-26T02:06:09.697Z,9.6
2022-12-26T02:09:09.697Z,9.6
2022-12-26T02:12:47.539Z,9.6
2022-12-26T02:15:09.633Z,9.6
2022-12-26T02:18:09.669Z,9.5
2022-12-26T02:21:09.590Z,9.4
2022-12-26T02:24:09.667Z,9.4
2022-12-26T02:27:09.590Z,9.4
2022-12-26T02:30:09.629Z,9.4
2022-12-26T02:33:09.589Z,9.4
2022-12-26T02:36:09.611Z,9.3
2022-12-26T02:39:51.205Z,9.4
2022-12-26T02:42:09.838Z,9.4
2022-12-26T02:45:09.675Z,9.3
2022-12-26T02:48:09.623Z,9.3
2022-12-26T02:51:09.622Z,9.3
2022-12-26T02:54:09.605Z,9.3
2022-12-26T02:57:09.748Z,9.3
2022-12-26T03:00:09.683Z,9.4
2022-12-26T03:03:10.139Z,9.3
2022-12-26T03:06:09.622Z,9.3
2022-12-26T03:09:09.607Z,9.2
2022-12-26T03:12:09.647Z,9.1
2022-12-26T03:15:09.842Z,9.1
2022-12-26T03:18:10.070Z,9.1
2022-12-26T03:21:09.696Z,9.1
2022-12-26T03:24:09.639Z,9.1
2022-12-26T03:27:09.704Z,9.2
2022-12-26T03:30:09.648Z,9.1
2022-12-26T03:33:09.620Z,9.1
2022-12-26T03:36:09.648Z,9.1
2022-12-26T03:39:09.613Z,9.1
2022-12-26T03:42:09.658Z,9.1
2022-12-26T03:45:09.680Z,9.1
2022-12-26T03:48:09.621Z,9.1
2022-12-26T03:51:09.609Z,9.1
2022-12-26T03:54:09.694Z,9.1
2022-12-26T03:57:09.607Z,9
2022-12-26T04:00:10.037Z,8.9
2022-12-26T04:03:09.699Z,8.9
2022-12-26T04:06:09.631Z,8.9
2022-12-26T04:09:09.650Z,9
2022-12-26T04:12:09.596Z,9
2022-12-26T04:15:09.602Z,8.9
2022-12-26T04:18:09.633Z,8.9
2022-12-26T04:21:09.604Z,8.9
2022-12-26T04:24:09.832Z,8.8
2022-12-26T04:27:09.645Z,8.8
2022-12-26T04:30:09.628Z,8.7
2022-12-26T04:33:09.671Z,8.7
2022-12-26T04:36:09.692Z,8.7
2022-12-26T04:39:09.556Z,8.7
2022-12-26T04:42:09.658Z,8.7
2022-12-26T04:45:09.561Z,8.8
2022-12-26T04:48:09.676Z,8.8
2022-12-26T04:51:09.562Z,8.9
2022-12-26T04:54:09.678Z,8.9
2022-12-26T04:57:09.672Z,9
2022-12-26T05:00:09.714Z,9
2022-12-26T05:03:13.259Z,9
2022-12-26T05:06:09.645Z,9.1
2022-12-26T05:09:09.603Z,9.2
2022-12-26T05:12:09.615Z,9.3
2022-12-26T05:15:09.689Z,9.3
2022-12-26T05:18:09.590Z,9.3
2022-12-26T05:21:09.653Z,9.3
2022-12-26T05:24:09.711Z,9.3
2022-12-26T05:27:10.144Z,9.2
2022-12-26T05:30:09.690Z,9.1
2022-12-26T05:33:09.634Z,9
2022-12-26T05:36:09.543Z,9
2022-12-26T05:39:09.679Z,9.1
2022-12-26T05:42:09.678Z,9.1
2022-12-26T05:45:09.599Z,9.1
2022-12-26T05:48:09.627Z,9.1
2022-12-26T05:51:09.627Z,9.2
2022-12-26T05:54:09.749Z,9.1
2022-12-26T05:57:09.588Z,9.1
2022-12-26T06:00:09.701Z,9.1
2022-12-26T06:03:10.486Z,9.2
2022-12-26T06:06:09.687Z,9.2
2022-12-26T06:09:10.153Z,9.3
2022-12-26T06:12:09.583Z,9.3
2022-12-26T06:15:09.655Z,9.3
2022-12-26T06:18:09.594Z,9.3
2022-12-26T06:21:09.605Z,9.3
2022-12-26T06:24:09.691Z,9.4
2022-12-26T06:27:09.561Z,9.4
2022-12-26T06:30:09.647Z,9.4
2022-12-26T06:33:09.635Z,9.4
2022-12-26T06:36:09.627Z,9.5
2022-12-26T06:39:09.682Z,9.5
2022-12-26T06:42:09.714Z,9.5
2022-12-26T06:45:09.569Z,9.5
2022-12-26T06:48:09.626Z,9.5
2022-12-26T06:51:09.589Z,9.4
2022-12-26T06:54:09.570Z,9.4
2022-12-26T06:57:09.538Z,9.4
2022-12-26T07:00:10.019Z,9.4
2022-12-26T07:03:09.992Z,9.4
2022-12-26T07:06:09.646Z,9.4
2022-12-26T07:09:09.660Z,9.4
2022-12-26T07:12:09.611Z,9.4
2022-12-26T07:15:11.215Z,9.4
2022-12-26T07:18:09.580Z,9.4
2022-12-26T07:21:09.613Z,9.4
2022-12-26T07:24:09.553Z,9.4
2022-12-26T07:27:09.584Z,9.4
2022-12-26T07:30:09.694Z,9.4
2022-12-26T07:33:09.674Z,9.4
2022-12-26T07:36:09.774Z,9.4
2022-12-26T07:39:09.673Z,9.4
2022-12-26T07:42:09.726Z,9.4
2022-12-26T07:45:09.756Z,9.4
2022-12-26T07:48:09.719Z,9.3
2022-12-26T07:51:09.653Z,9.3
2022-12-26T07:54:19.294Z,9.3
2022-12-26T07:57:57.578Z,9.3
2022-12-26T08:00:09.969Z,9.3
2022-12-26T08:03:18.580Z,9.3
2022-12-26T08:06:09.814Z,9.4
2022-12-26T08:09:09.671Z,9.3
2022-12-26T08:12:09.674Z,9.3
2022-12-26T08:15:09.677Z,9.3
2022-12-26T08:18:09.808Z,9.3
2022-12-26T08:21:09.885Z,9.3
2022-12-26T08:24:09.687Z,9.3
2022-12-26T08:27:09.758Z,9.3
2022-12-26T08:30:09.851Z,9.3
2022-12-26T08:33:09.667Z,9.3
2022-12-26T08:36:09.793Z,9.3
2022-12-26T08:39:10.002Z,9.3
2022-12-26T08:42:09.681Z,9.3
2022-12-26T08:45:09.811Z,9.3
2022-12-26T08:48:09.850Z,9.3
2022-12-26T08:51:09.782Z,9.3
2022-12-26T08:54:09.693Z,9.3
2022-12-26T08:57:09.943Z,9.3
2022-12-26T09:00:09.805Z,9.3
2022-12-26T09:03:10.051Z,9.4
2022-12-26T09:06:16.001Z,9.4
2022-12-26T09:09:09.687Z,9.3
2022-12-26T09:12:09.662Z,9.3
2022-12-26T09:15:09.682Z,9.3
2022-12-26T09:18:09.923Z,9.3
2022-12-26T09:21:09.681Z,9.3
2022-12-26T09:24:09.859Z,9.3
2022-12-26T09:27:09.688Z,9.3
2022-12-26T09:30:09.883Z,9.3
2022-12-26T09:33:09.745Z,9.2
2022-12-26T09:36:21.438Z,9.1
2022-12-26T09:39:09.708Z,9.2
2022-12-26T09:42:09.677Z,9.2
2022-12-26T09:45:09.699Z,9.2
2022-12-26T09:48:09.625Z,9.3
2022-12-26T09:51:09.679Z,9.3
2022-12-26T09:54:10.066Z,9.2
2022-12-26T09:57:21.490Z,9.3
2022-12-26T10:00:09.822Z,9.3
2022-12-26T10:03:09.644Z,9.3
2022-12-26T10:06:09.679Z,9.4
2022-12-26T10:09:09.775Z,9.5
2022-12-26T10:12:09.830Z,9.6
2022-12-26T10:15:09.674Z,9.7
2022-12-26T10:18:09.898Z,9.8
2022-12-26T10:21:09.672Z,9.8
2022-12-26T10:24:09.673Z,9.8
2022-12-26T10:27:09.816Z,9.8
2022-12-26T10:30:09.756Z,9.8
2022-12-26T10:33:09.673Z,9.8
2022-12-26T10:36:09.641Z,9.9
2022-12-26T10:39:09.903Z,9.9
2022-12-26T10:42:09.586Z,9.9
2022-12-26T10:45:09.919Z,9.9
2022-12-26T10:48:09.619Z,9.8
2022-12-26T10:51:09.679Z,9.9
2022-12-26T10:54:09.767Z,10
2022-12-26T10:57:10.002Z,10.1
2022-12-26T11:00:10.031Z,10.1
2022-12-26T11:03:10.761Z,10.2
2022-12-26T11:06:18.744Z,10.2
2022-12-26T11:09:10.048Z,10.2
2022-12-26T11:12:09.752Z,10.2
2022-12-26T11:15:09.987Z,10.2
2022-12-26T11:18:10.032Z,10.2
2022-12-26T11:21:17.485Z,10.2
2022-12-26T11:24:09.627Z,10.2
2022-12-26T11:27:17.268Z,10.2
2022-12-26T11:30:10.016Z,10.2
2022-12-26T11:33:19.150Z,10.4
2022-12-26T11:36:09.932Z,10.7
2022-12-26T11:39:09.893Z,10.8
2022-12-26T11:42:10.090Z,10.9
2022-12-26T11:45:09.928Z,10.8
2022-12-26T11:48:09.833Z,10.9
2022-12-26T11:51:09.734Z,10.9
2022-12-26T11:54:09.933Z,10.9
2022-12-26T11:57:10.068Z,10.8
2022-12-26T12:00:09.696Z,10.6
2022-12-26T12:03:10.123Z,10.3
2022-12-26T12:06:09.788Z,10.1
2022-12-26T12:09:15.243Z,10.1
2022-12-26T12:12:10.038Z,9.9
2022-12-26T12:15:09.636Z,10
2022-12-26T12:18:09.642Z,10.1
2022-12-26T12:21:09.980Z,10.3
2022-12-26T12:24:09.815Z,10.3
2022-12-26T12:27:14.504Z,10.3
2022-12-26T12:30:09.700Z,10.3
2022-12-26T12:33:10.084Z,10.3
2022-12-26T12:36:10.163Z,10.3
2022-12-26T12:39:10.082Z,10.2
2022-12-26T12:42:10.073Z,10.3
2022-12-26T12:45:10.111Z,10.3
2022-12-26T12:48:09.839Z,10.2
2022-12-26T12:51:10.014Z,10.1
2022-12-26T12:54:09.648Z,10.2
2022-12-26T12:57:09.679Z,10.3
2022-12-26T13:00:09.727Z,10.4
2022-12-26T13:03:10.491Z,10.4
2022-12-26T13:06:09.633Z,10.4
2022-12-26T13:09:09.948Z,10.4
2022-12-26T13:12:09.576Z,10.4
2022-12-26T13:15:09.776Z,10.4
2022-12-26T13:18:09.644Z,10.4
2022-12-26T13:21:09.661Z,10.4
2022-12-26T13:24:09.665Z,10.6
2022-12-26T13:27:09.612Z,10.7
2022-12-26T13:30:09.799Z,10.6
2022-12-26T13:33:09.634Z,10.5
2022-12-26T13:36:10.221Z,10.4
2022-12-26T13:39:09.706Z,10.2
2022-12-26T13:42:09.634Z,10.2
2022-12-26T13:45:09.648Z,10.3
2022-12-26T13:48:10.128Z,10.3
2022-12-26T13:51:09.619Z,10.3
2022-12-26T13:54:09.618Z,10.3
2022-12-26T13:57:09.698Z,10.3
2022-12-26T14:00:09.676Z,10.3
2022-12-26T14:03:29.923Z,10.1
2022-12-26T14:06:09.650Z,10.1
2022-12-26T14:09:09.675Z,10
2022-12-26T14:12:09.583Z,9.9
2022-12-26T14:15:09.731Z,9.9
2022-12-26T14:18:09.663Z,9.8
2022-12-26T14:21:10.313Z,9.8
2022-12-26T14:24:10.076Z,9.8
2022-12-26T14:27:09.593Z,9.6
2022-12-26T14:30:09.760Z,9.5
2022-12-26T14:33:10.887Z,9.4
2022-12-26T14:36:09.620Z,9.4
2022-12-26T14:39:10.081Z,9.4
2022-12-26T14:42:09.626Z,9.4
2022-12-26T14:45:09.654Z,9.4
2022-12-26T14:48:09.667Z,9.5
2022-12-26T14:51:09.680Z,9.6
2022-12-26T14:54:09.677Z,9.6
2022-12-26T14:57:09.633Z,9.7
2022-12-26T15:00:14.152Z,9.6
2022-12-26T15:03:10.098Z,9.2
2022-12-26T15:06:09.672Z,8.8
2022-12-26T15:09:09.693Z,8.4
2022-12-26T15:12:09.633Z,8.3
2022-12-26T15:15:09.580Z,8.1
2022-12-26T15:18:09.602Z,8.1
2022-12-26T15:21:09.617Z,7.9
2022-12-26T15:24:09.571Z,7.9
2022-12-26T15:27:09.535Z,7.8
2022-12-26T15:30:09.768Z,7.7
2022-12-26T15:33:09.607Z,7.7
2022-12-26T15:36:12.769Z,7.7
2022-12-26T15:39:09.564Z,7.7
2022-12-26T15:42:09.659Z,7.7
2022-12-26T15:45:09.643Z,7.6
2022-12-26T15:48:09.630Z,7.6
2022-12-26T15:51:09.620Z,7.3
2022-12-26T15:54:09.574Z,7.1
2022-12-26T15:57:09.608Z,7.1
2022-12-26T16:00:09.777Z,6.9
2022-12-26T16:03:09.891Z,6.7
2022-12-26T16:06:09.653Z,6.7
2022-12-26T16:09:09.616Z,6.5
2022-12-26T16:12:09.605Z,6.4
2022-12-26T16:15:09.719Z,6.3
2022-12-26T16:18:09.525Z,6.2
2022-12-26T16:21:09.713Z,6.2
2022-12-26T16:24:09.517Z,6.2
2022-12-26T16:27:09.574Z,6.1
2022-12-26T16:30:18.993Z,6.1
2022-12-26T16:33:09.647Z,6
2022-12-26T16:36:10.365Z,5.9
2022-12-26T16:39:09.579Z,5.9
2022-12-26T16:42:09.655Z,5.9
2022-12-26T16:45:09.618Z,5.9
2022-12-26T16:48:09.655Z,5.9
2022-12-26T16:51:10.259Z,5.7
2022-12-26T16:54:09.628Z,5.6
2022-12-26T16:57:09.610Z,5.5
2022-12-26T17:00:09.650Z,5.4
2022-12-26T17:03:10.921Z,5.5
2022-12-26T17:06:09.583Z,5.6
2022-12-26T17:09:09.613Z,5.6
2022-12-26T17:12:09.632Z,5.6
2022-12-26T17:15:09.795Z,5.6
2022-12-26T17:18:09.695Z,5.6
2022-12-26T17:21:09.583Z,5.6
2022-12-26T17:24:09.680Z,5.6
2022-12-26T17:27:09.586Z,5.6
2022-12-26T17:30:09.684Z,5.6
2022-12-26T17:33:09.678Z,5.6
2022-12-26T17:39:09.703Z,5.4
2022-12-26T17:42:09.720Z,5.4
2022-12-26T17:45:09.666Z,5.3
2022-12-26T17:48:09.612Z,5.2
2022-12-26T17:51:09.546Z,5.1
2022-12-26T17:54:09.694Z,5.1
2022-12-26T17:57:09.627Z,5.1
2022-12-26T18:00:09.669Z,5.1
2022-12-26T18:03:10.510Z,5.1
2022-12-26T18:06:09.650Z,5
2022-12-26T18:09:10.327Z,5
2022-12-26T18:12:09.631Z,4.9
2022-12-26T18:15:11.760Z,4.9
2022-12-26T18:18:09.622Z,4.8
2022-12-26T18:21:10.561Z,4.7
2022-12-26T18:24:09.679Z,4.7
2022-12-26T18:27:09.717Z,4.6
2022-12-26T18:30:09.713Z,4.6
2022-12-26T18:33:09.610Z,4.6
2022-12-26T18:36:16.807Z,4.5
2022-12-26T18:39:09.693Z,4.4
2022-12-26T18:42:09.667Z,4.3
2022-12-26T18:45:09.593Z,4.3
2022-12-26T18:48:09.644Z,4.2
2022-12-26T18:51:09.607Z,4.1
2022-12-26T18:54:09.622Z,4.1
2022-12-26T18:57:09.619Z,4.1
2022-12-26T19:00:09.636Z,4.1
2022-12-26T19:03:09.553Z,4
2022-12-26T19:06:09.595Z,3.9
2022-12-26T19:09:09.806Z,3.9
2022-12-26T19:12:09.566Z,3.9
2022-12-26T19:15:09.565Z,3.7
2022-12-26T19:18:09.622Z,3.7
2022-12-26T19:21:09.544Z,3.6
2022-12-26T19:24:09.620Z,3.6
2022-12-26T19:27:09.677Z,3.5
2022-12-26T19:30:09.616Z,3.4
2022-12-26T19:33:09.618Z,3.3
2022-12-26T19:36:10.606Z,3.2
2022-12-26T19:39:09.549Z,3.2
2022-12-26T19:42:09.625Z,3.1
2022-12-26T19:45:09.676Z,3.1
2022-12-26T19:48:09.652Z,3.1
2022-12-26T19:51:09.568Z,3.1
2022-12-26T19:54:09.604Z,2.9
2022-12-26T19:57:09.545Z,2.7
2022-12-26T20:00:09.627Z,2.6
2022-12-26T20:03:09.873Z,2.6
2022-12-26T20:06:09.610Z,2.6
2022-12-26T20:09:09.624Z,2.6
2022-12-26T20:12:09.672Z,2.6
2022-12-26T20:15:09.667Z,2.6
2022-12-26T20:18:15.117Z,2.7
2022-12-26T20:21:09.595Z,2.9
2022-12-26T20:24:09.603Z,3.1
2022-12-26T20:27:09.638Z,3.2
2022-12-26T20:30:09.630Z,3.2
2022-12-26T20:33:09.591Z,3.3
2022-12-26T20:36:09.641Z,3.4
2022-12-26T20:39:09.694Z,3.4
2022-12-26T20:42:09.579Z,3.6
2022-12-26T20:45:09.580Z,3.6
2022-12-26T20:48:09.544Z,3.6
2022-12-26T20:51:09.546Z,3.7
2022-12-26T20:54:10.560Z,3.7
2022-12-26T20:57:09.874Z,3.8
2022-12-26T21:00:09.738Z,3.9
2022-12-26T21:03:10.045Z,3.9
2022-12-26T21:06:10.217Z,3.9
2022-12-26T21:09:10.724Z,4
2022-12-26T21:12:11.631Z,4.1
2022-12-26T21:15:10.986Z,4.1
2022-12-26T21:18:09.984Z,4
2022-12-26T21:21:10.242Z,4
2022-12-26T21:25:14.980Z,4.1
2022-12-26T21:27:10.239Z,4.1
2022-12-26T21:30:10.459Z,4.1
2022-12-26T21:33:10.307Z,4.2
2022-12-26T21:39:10.087Z,4.1
2022-12-26T21:42:09.979Z,3.9
2022-12-26T21:45:10.338Z,3.9
2022-12-26T21:48:09.956Z,3.7
2022-12-26T21:51:09.953Z,3.7
2022-12-26T21:54:09.960Z,3.7
2022-12-26T21:57:10.097Z,3.7
2022-12-26T22:00:10.075Z,3.8
2022-12-26T22:03:10.563Z,4
2022-12-26T22:06:09.831Z,4.1
2022-12-26T22:09:09.988Z,4.1
2022-12-26T22:12:10.607Z,4
2022-12-26T22:15:09.958Z,3.9
2022-12-26T22:18:09.832Z,3.7
2022-12-26T22:21:09.956Z,3.6
2022-12-26T22:24:09.905Z,3.5
2022-12-26T22:27:09.894Z,3.4
2022-12-26T22:30:09.885Z,3.4
2022-12-26T22:33:09.978Z,3.3
2022-12-26T22:36:09.994Z,3.4
2022-12-26T22:39:09.979Z,3.5
2022-12-26T22:42:11.621Z,3.5
2022-12-26T22:45:09.819Z,3.4
2022-12-26T22:48:09.985Z,3.4
2022-12-26T22:51:09.813Z,3.3
2022-12-26T22:54:09.923Z,3.2
2022-12-26T22:57:09.914Z,3.1
2022-12-26T23:00:20.140Z,3.1
2022-12-26T23:03:10.453Z,3.1
2022-12-26T23:06:09.898Z,3.1
2022-12-26T23:09:09.939Z,3
2022-12-26T23:12:09.926Z,2.9
2022-12-26T23:15:09.878Z,3
2022-12-26T23:18:09.883Z,2.9
2022-12-26T23:21:09.822Z,2.9
2022-12-26T23:24:09.913Z,2.9
2022-12-26T23:27:16.765Z,2.8
2022-12-26T23:30:09.895Z,2.8
2022-12-26T23:33:09.949Z,2.9
2022-12-26T23:36:09.938Z,2.9
2022-12-26T23:39:09.816Z,2.9
2022-12-26T23:42:09.811Z,2.9
2022-12-26T23:45:09.944Z,2.9
2022-12-26T23:48:09.890Z,2.9
2022-12-26T23:51:09.937Z,3
2022-12-26T23:54:09.937Z,3.1
2022-12-26T23:57:09.904Z,3.1
